createdAt,value
2018-02-23T00:00:22.332Z,11.20
2018-02-23T00:02:49.714Z,12.45
2018-02-23T00:05:17.108Z,29.57
2018-02-23T00:07:47.302Z,12.57
2018-02-23T00:10:14.706Z,10.10
2018-02-23T00:12:42.087Z,10.67
2018-02-23T00:15:09.474Z,10.57
2018-02-23T00:17:36.878Z,11.53
2018-02-23T00:20:04.274Z,10.27
2018-02-23T00:22:41.615Z,10.93
2018-02-23T00:25:09.147Z,10.50
2018-02-23T00:27:36.533Z,10.30
2018-02-23T00:30:03.893Z,10.20
2018-02-23T00:32:31.281Z,10.33
2018-02-23T00:34:58.711Z,10.50
2018-02-23T00:37:26.079Z,9.67
2018-02-23T00:39:53.461Z,11.37
2018-02-23T00:42:21.086Z,11.10
2018-02-23T00:44:48.466Z,10.07
2018-02-23T00:47:16.030Z,10.27
2018-02-23T00:49:43.398Z,10.13
2018-02-23T00:52:10.832Z,9.02
2018-02-23T00:54:38.261Z,11.03
2018-02-23T00:57:05.703Z,11.43
2018-02-23T00:59:33.062Z,12.17
2018-02-23T01:02:00.751Z,12.27
2018-02-23T01:04:28.177Z,10.00
2018-02-23T01:06:55.539Z,11.03
2018-02-23T01:09:23.002Z,10.95
2018-02-23T01:11:50.385Z,10.10
2018-02-23T01:14:18.465Z,11.63
2018-02-23T01:16:46.136Z,10.80
2018-02-23T01:19:13.541Z,9.53
2018-02-23T01:21:40.914Z,11.33
2018-02-23T01:24:08.651Z,9.33
2018-02-23T01:26:36.060Z,9.93
2018-02-23T01:29:03.501Z,10.07
2018-02-23T01:31:30.981Z,9.27
2018-02-23T01:33:58.383Z,10.77
2018-02-23T01:36:25.758Z,10.50
2018-02-23T01:38:53.164Z,9.70
2018-02-23T01:41:20.725Z,12.77
2018-02-23T01:43:48.119Z,11.80
2018-02-23T01:46:16.305Z,11.68
2018-02-23T01:48:43.699Z,12.17
2018-02-23T01:51:11.440Z,10.45
2018-02-23T01:53:38.981Z,10.77
2018-02-23T01:56:06.668Z,13.30
2018-02-23T01:58:34.284Z,9.98
2018-02-23T02:01:01.727Z,10.53
2018-02-23T02:03:29.106Z,11.85
2018-02-23T02:05:56.501Z,13.03
2018-02-23T02:08:23.882Z,11.27
2018-02-23T02:10:51.316Z,10.07
2018-02-23T02:13:18.691Z,13.40
2018-02-23T02:15:46.315Z,13.50
2018-02-23T02:18:13.703Z,10.63
2018-02-23T02:20:41.069Z,10.53
2018-02-23T02:23:08.459Z,13.83
2018-02-23T02:25:35.853Z,11.17
2018-02-23T02:28:05.307Z,11.70
2018-02-23T02:30:32.758Z,10.57
2018-02-23T02:33:00.182Z,11.00
2018-02-23T02:35:27.733Z,10.37
2018-02-23T02:37:55.102Z,11.80
2018-02-23T02:40:22.724Z,12.30
2018-02-23T02:42:50.158Z,10.17
2018-02-23T02:45:17.831Z,12.60
2018-02-23T02:47:45.590Z,13.00
2018-02-23T02:50:13.088Z,10.63
2018-02-23T02:52:40.504Z,11.00
2018-02-23T02:55:08.096Z,11.90
2018-02-23T02:57:35.467Z,12.33
2018-02-23T03:00:02.982Z,10.70
2018-02-23T03:02:30.398Z,12.25
2018-02-23T03:04:57.791Z,10.80
2018-02-23T03:07:25.216Z,11.37
2018-02-23T03:09:52.641Z,10.27
2018-02-23T03:12:20.067Z,15.70
2018-02-23T03:14:47.461Z,14.27
2018-02-23T03:17:14.901Z,9.80
2018-02-23T03:19:42.342Z,9.23
2018-02-23T03:22:09.902Z,11.43
2018-02-23T03:24:37.284Z,9.23
2018-02-23T03:27:04.877Z,12.30
2018-02-23T03:29:32.267Z,9.40
2018-02-23T03:31:59.637Z,9.67
2018-02-23T03:34:27.309Z,9.37
2018-02-23T03:36:55.061Z,11.63
2018-02-23T03:39:22.481Z,10.63
2018-02-23T03:41:49.890Z,10.83
2018-02-23T03:44:17.268Z,10.63
2018-02-23T03:46:44.654Z,8.90
2018-02-23T03:49:12.094Z,9.17
2018-02-23T03:51:39.500Z,9.37
2018-02-23T03:54:06.877Z,9.83
2018-02-23T03:56:34.242Z,9.57
2018-02-23T03:59:01.640Z,11.27
2018-02-23T04:01:29.187Z,8.75
2018-02-23T04:03:56.642Z,11.50
2018-02-23T04:06:24.038Z,9.60
2018-02-23T04:08:51.425Z,9.32
2018-02-23T04:11:18.864Z,12.13
2018-02-23T04:13:46.850Z,11.00
2018-02-23T04:16:14.218Z,10.73
2018-02-23T04:18:41.599Z,9.47
2018-02-23T04:21:08.965Z,10.57
2018-02-23T04:23:36.616Z,8.90
2018-02-23T04:26:03.978Z,7.97
2018-02-23T04:28:31.443Z,8.60
2018-02-23T04:30:58.774Z,11.73
2018-02-23T04:33:26.272Z,8.60
2018-02-23T04:35:53.633Z,9.40
2018-02-23T04:38:21.593Z,9.63
2018-02-23T04:40:48.978Z,9.15
2018-02-23T04:43:17.060Z,8.68
2018-02-23T04:45:44.477Z,8.80
2018-02-23T04:48:11.844Z,9.90
2018-02-23T04:50:39.275Z,8.40
2018-02-23T04:53:06.679Z,11.90
2018-02-23T04:55:34.062Z,9.60
2018-02-23T04:58:01.470Z,11.50
2018-02-23T05:00:28.830Z,8.87
2018-02-23T05:02:56.342Z,10.07
2018-02-23T05:05:23.718Z,11.27
2018-02-23T05:07:51.118Z,10.37
2018-02-23T05:10:18.560Z,9.87
2018-02-23T05:12:45.985Z,10.67
2018-02-23T05:15:14.371Z,9.93
2018-02-23T05:17:41.749Z,10.13
2018-02-23T05:20:09.122Z,10.98
2018-02-23T05:22:36.487Z,12.40
2018-02-23T05:25:04.935Z,11.43
2018-02-23T05:27:32.449Z,11.07
2018-02-23T05:29:59.885Z,11.35
2018-02-23T05:32:27.266Z,10.17
2018-02-23T05:34:54.636Z,11.93
2018-02-23T05:37:22.035Z,11.37
2018-02-23T05:39:49.418Z,11.13
2018-02-23T05:42:17.290Z,9.95
2018-02-23T05:44:44.674Z,11.50
2018-02-23T05:47:12.062Z,14.80
2018-02-23T05:49:39.430Z,10.90
2018-02-23T05:52:06.815Z,11.77
2018-02-23T05:54:34.234Z,11.25
2018-02-23T05:57:01.618Z,10.60
2018-02-23T05:59:29.049Z,11.40
2018-02-23T06:01:56.409Z,12.37
2018-02-23T06:04:23.992Z,10.87
2018-02-23T06:06:51.357Z,10.32
2018-02-23T06:09:18.751Z,9.90
2018-02-23T06:11:46.231Z,12.20
2018-02-23T06:14:13.972Z,10.63
2018-02-23T06:16:41.361Z,10.80
2018-02-23T06:19:08.754Z,12.17
2018-02-23T06:21:36.142Z,11.00
2018-02-23T06:24:03.518Z,13.20
2018-02-23T06:26:30.902Z,12.80
2018-02-23T06:28:58.298Z,11.37
2018-02-23T06:31:25.705Z,9.77
2018-02-23T06:33:53.090Z,10.63
2018-02-23T06:36:20.574Z,14.50
2018-02-23T06:38:47.950Z,11.87
2018-02-23T06:41:15.359Z,15.43
2018-02-23T06:43:42.739Z,15.10
2018-02-23T06:46:10.118Z,12.43
2018-02-23T06:48:38.293Z,11.50
2018-02-23T06:51:05.697Z,12.43
2018-02-23T06:53:33.086Z,11.10
2018-02-23T06:56:00.466Z,12.00
2018-02-23T06:58:27.841Z,11.20
2018-02-23T07:00:55.359Z,11.80
2018-02-23T07:03:22.774Z,12.96
2018-02-23T07:05:50.248Z,11.40
2018-02-23T07:08:17.721Z,13.05
2018-02-23T07:10:45.144Z,13.87
2018-02-23T07:13:12.515Z,11.67
2018-02-23T07:15:39.902Z,12.63
2018-02-23T07:18:07.405Z,11.00
2018-02-23T07:20:34.734Z,13.88
2018-02-23T07:23:02.229Z,13.17
2018-02-23T07:25:29.625Z,12.17
2018-02-23T07:27:57.012Z,12.25
2018-02-23T07:30:24.419Z,12.90
2018-02-23T07:32:51.817Z,14.30
2018-02-23T07:35:19.203Z,13.87
2018-02-23T07:37:46.599Z,15.90
2018-02-23T07:40:14.174Z,12.53
2018-02-23T07:42:41.586Z,13.50
2018-02-23T07:45:09.031Z,14.00
2018-02-23T07:47:36.400Z,12.40
2018-02-23T07:50:03.790Z,14.15
2018-02-23T07:52:31.202Z,14.57
2018-02-23T07:54:58.607Z,14.20
2018-02-23T07:57:27.122Z,13.80
2018-02-23T07:59:54.718Z,14.53
2018-02-23T08:02:22.089Z,12.33
2018-02-23T08:04:49.470Z,14.10
2018-02-23T08:07:16.893Z,13.70
2018-02-23T08:09:44.282Z,13.57
2018-02-23T08:12:11.662Z,13.50
2018-02-23T08:14:39.073Z,12.10
2018-02-23T08:17:06.487Z,12.07
2018-02-23T08:19:34.009Z,14.10
2018-02-23T08:22:01.425Z,13.43
2018-02-23T08:24:28.808Z,13.40
2018-02-23T08:26:56.232Z,14.50
2018-02-23T08:29:23.611Z,15.03
2018-02-23T08:31:51.933Z,12.95
2018-02-23T08:34:19.325Z,13.57
2018-02-23T08:36:46.697Z,16.10
2018-02-23T08:39:14.078Z,16.15
2018-02-23T08:41:41.512Z,15.57
2018-02-23T08:44:08.923Z,15.20
2018-02-23T08:46:36.341Z,14.87
2018-02-23T08:49:03.757Z,15.43
2018-02-23T08:51:31.154Z,15.95
2018-02-23T08:53:58.557Z,16.23
2018-02-23T08:56:26.041Z,15.97
2018-02-23T08:58:53.418Z,15.90
2018-02-23T09:01:20.852Z,16.20
2018-02-23T09:03:48.342Z,14.00
2018-02-23T09:06:15.743Z,16.10
2018-02-23T09:08:43.209Z,15.53
2018-02-23T09:11:10.685Z,17.40
2018-02-23T09:13:38.060Z,15.33
2018-02-23T09:16:05.438Z,15.80
2018-02-23T09:18:32.854Z,15.37
2018-02-23T09:21:00.915Z,18.10
2018-02-23T09:23:28.528Z,15.83
2018-02-23T09:25:55.907Z,15.35
2018-02-23T09:28:23.348Z,18.37
2018-02-23T09:30:52.169Z,18.97
2018-02-23T09:33:19.559Z,19.13
2018-02-23T09:35:46.962Z,16.90
2018-02-23T09:38:14.346Z,17.23
2018-02-23T09:40:41.737Z,16.77
2018-02-23T09:43:09.107Z,16.37
2018-02-23T09:45:36.543Z,19.62
2018-02-23T09:48:03.990Z,17.73
2018-02-23T09:50:31.345Z,18.48
2018-02-23T09:52:58.737Z,16.63
2018-02-23T09:55:26.201Z,17.60
2018-02-23T09:57:53.583Z,17.90
2018-02-23T10:00:21.020Z,18.97
2018-02-23T10:02:48.559Z,16.63
2018-02-23T10:05:15.978Z,17.63
2018-02-23T10:07:43.348Z,16.53
2018-02-23T10:10:10.722Z,18.43
2018-02-23T10:12:38.370Z,16.73
2018-02-23T10:15:05.757Z,16.10
2018-02-23T10:17:33.209Z,19.47
2018-02-23T10:20:00.590Z,13.40
2018-02-23T10:22:28.045Z,18.27
2018-02-23T10:24:55.454Z,16.30
2018-02-23T10:27:22.855Z,14.77
2018-02-23T10:29:50.297Z,17.37
2018-02-23T10:32:17.662Z,17.07
2018-02-23T10:34:45.056Z,16.27
2018-02-23T10:37:12.436Z,15.63
2018-02-23T10:39:39.890Z,14.53
2018-02-23T10:42:07.339Z,14.97
2018-02-23T10:44:34.724Z,16.17
2018-02-23T10:47:02.155Z,15.60
2018-02-23T10:49:33.724Z,19.03
2018-02-23T10:52:02.307Z,18.53
2018-02-23T10:54:29.745Z,17.77
2018-02-23T10:56:57.085Z,17.23
2018-02-23T10:59:24.464Z,15.43
2018-02-23T11:01:51.861Z,18.37
2018-02-23T11:04:19.249Z,14.23
2018-02-23T11:06:46.654Z,13.77
2018-02-23T11:09:14.078Z,16.47
2018-02-23T11:11:41.457Z,15.67
2018-02-23T11:14:08.872Z,13.35
2018-02-23T11:16:36.328Z,14.70
2018-02-23T11:19:03.726Z,15.77
2018-02-23T11:21:31.115Z,16.85
2018-02-23T11:23:58.515Z,14.37
2018-02-23T11:26:25.899Z,16.20
2018-02-23T11:28:53.315Z,16.10
2018-02-23T11:31:20.714Z,17.13
2018-02-23T11:33:49.012Z,12.88
2018-02-23T11:36:16.538Z,12.90
2018-02-23T11:38:43.911Z,13.98
2018-02-23T11:41:11.282Z,14.13
2018-02-23T11:43:38.666Z,15.50
2018-02-23T11:46:06.079Z,13.70
2018-02-23T11:48:33.461Z,13.60
2018-02-23T11:51:00.868Z,15.68
2018-02-23T11:53:28.292Z,14.30
2018-02-23T11:55:55.705Z,13.57
2018-02-23T11:58:23.070Z,14.45
2018-02-23T12:00:50.495Z,14.43
2018-02-23T12:03:17.858Z,14.17
2018-02-23T12:05:45.233Z,16.40
2018-02-23T12:08:12.752Z,13.47
2018-02-23T12:10:40.195Z,13.33
2018-02-23T12:13:07.764Z,12.87
2018-02-23T12:15:35.225Z,14.00
2018-02-23T12:18:02.701Z,12.98
2018-02-23T12:20:30.107Z,15.00
2018-02-23T12:22:57.490Z,14.20
2018-02-23T12:25:27.424Z,12.00
2018-02-23T12:27:56.058Z,13.07
2018-02-23T12:30:23.580Z,12.60
2018-02-23T12:32:51.090Z,12.87
2018-02-23T12:35:20.315Z,14.38
2018-02-23T12:37:47.766Z,13.20
2018-02-23T12:40:15.632Z,15.30
2018-02-23T12:42:43.134Z,13.87
2018-02-23T12:45:10.536Z,14.33
2018-02-23T12:47:37.983Z,14.33
2018-02-23T12:50:06.106Z,13.65
2018-02-23T12:52:33.496Z,13.03
2018-02-23T12:55:00.908Z,13.83
2018-02-23T12:57:28.395Z,13.55
2018-02-23T12:59:55.834Z,12.83
2018-02-23T13:02:23.265Z,13.73
2018-02-23T13:04:50.904Z,12.57
2018-02-23T13:07:19.429Z,13.60
2018-02-23T13:09:46.908Z,13.37
2018-02-23T13:12:14.521Z,11.80
2018-02-23T13:14:48.075Z,13.53
2018-02-23T13:17:15.448Z,12.90
2018-02-23T13:19:42.831Z,12.47
2018-02-23T13:22:10.692Z,12.47
2018-02-23T13:24:38.142Z,12.30
2018-02-23T13:27:11.055Z,12.93
2018-02-23T13:29:38.481Z,13.33
2018-02-23T13:32:05.867Z,14.47
2018-02-23T13:34:33.266Z,13.50
2018-02-23T13:37:00.677Z,14.60
2018-02-23T13:39:28.283Z,12.83
2018-02-23T13:41:55.830Z,14.10
2018-02-23T13:44:23.404Z,15.83
2018-02-23T13:46:52.679Z,14.40
2018-02-23T13:49:20.213Z,14.47
2018-02-23T13:51:50.163Z,15.10
2018-02-23T13:54:27.263Z,16.92
2018-02-23T13:56:54.634Z,14.90
2018-02-23T13:59:22.057Z,15.70
2018-02-23T14:01:49.754Z,15.07
2018-02-23T14:04:17.127Z,14.97
2018-02-23T14:06:48.473Z,15.17
2018-02-23T14:09:16.069Z,14.87
2018-02-23T14:11:43.450Z,15.90
2018-02-23T14:14:10.843Z,15.53
2018-02-23T14:16:39.583Z,16.53
2018-02-23T14:19:06.965Z,16.15
2018-02-23T14:21:35.010Z,14.52
2018-02-23T14:24:02.410Z,15.55
2018-02-23T14:26:29.850Z,16.37
2018-02-23T14:28:57.478Z,16.60
2018-02-23T14:31:24.883Z,15.65
2018-02-23T14:33:52.269Z,14.27
2018-02-23T14:36:20.210Z,15.27
2018-02-23T14:38:47.609Z,15.37
2018-02-23T14:41:14.992Z,18.30
2018-02-23T14:43:43.574Z,15.33
2018-02-23T14:46:10.971Z,16.17
2018-02-23T14:51:45.045Z,17.53
2018-02-23T14:54:22.811Z,15.23
2018-02-23T14:56:53.871Z,17.43
2018-02-23T14:59:21.461Z,15.33
2018-02-23T15:01:50.074Z,16.30
2018-02-23T15:04:17.446Z,16.60
2018-02-23T15:06:45.505Z,16.30
2018-02-23T15:09:12.897Z,17.10
2018-02-23T15:11:40.306Z,16.00
2018-02-23T15:14:07.898Z,16.20
2018-02-23T15:16:35.323Z,16.48
2018-02-23T15:19:02.891Z,15.77
2018-02-23T15:21:30.281Z,16.70
2018-02-23T15:23:57.708Z,16.20
2018-02-23T15:26:25.090Z,17.70
2018-02-23T15:28:52.723Z,19.30
2018-02-23T15:31:32.123Z,16.40
2018-02-23T15:33:59.501Z,16.90
2018-02-23T15:36:27.076Z,16.15
2018-02-23T15:38:54.635Z,17.40
2018-02-23T15:41:22.034Z,15.77
2018-02-23T15:43:50.237Z,14.95
2018-02-23T15:46:17.650Z,15.27
2018-02-23T15:48:46.567Z,15.73
2018-02-23T15:51:14.293Z,16.60
2018-02-23T15:53:41.723Z,17.00
2018-02-23T15:56:09.114Z,14.87
2018-02-23T15:58:37.484Z,15.17
2018-02-23T16:01:05.492Z,16.40
2018-02-23T16:03:32.899Z,14.77
2018-02-23T16:06:00.275Z,16.17
2018-02-23T16:08:27.689Z,17.57
2018-02-23T16:10:55.106Z,15.87
2018-02-23T16:13:22.506Z,16.50
2018-02-23T16:15:50.641Z,17.77
2018-02-23T16:18:18.054Z,17.13
2018-02-23T16:20:46.629Z,15.40
2018-02-23T16:23:15.010Z,15.80
2018-02-23T16:25:42.442Z,14.30
2018-02-23T16:28:13.630Z,14.07
2018-02-23T16:30:49.285Z,15.53
2018-02-23T16:33:17.008Z,13.50
2018-02-23T16:35:44.437Z,14.00
2018-02-23T16:38:11.916Z,17.73
2018-02-23T16:40:39.285Z,13.37
2018-02-23T16:43:06.974Z,13.62
2018-02-23T16:45:34.374Z,13.60
2018-02-23T16:48:01.874Z,12.77
2018-02-23T16:50:29.555Z,15.93
2018-02-23T16:52:56.986Z,12.43
2018-02-23T16:55:24.418Z,14.80
2018-02-23T16:57:51.808Z,15.20
2018-02-23T17:00:19.241Z,14.27
2018-02-23T17:02:46.562Z,14.17
2018-02-23T17:05:13.960Z,17.40
2018-02-23T17:07:41.342Z,15.60
2018-02-23T17:10:08.805Z,18.87
2018-02-23T17:12:36.281Z,21.20
2018-02-23T17:15:03.665Z,20.50
2018-02-23T17:17:31.063Z,20.27
2018-02-23T17:19:58.486Z,21.77
2018-02-23T17:22:25.868Z,20.95
2018-02-23T17:24:54.754Z,20.73
2018-02-23T17:27:22.151Z,20.53
2018-02-23T17:29:49.550Z,20.37
2018-02-23T17:32:16.990Z,20.95
2018-02-23T17:34:44.717Z,20.77
2018-02-23T17:37:12.177Z,19.70
2018-02-23T17:39:39.587Z,19.77
2018-02-23T17:42:06.971Z,20.75
2018-02-23T17:44:34.379Z,19.62
2018-02-23T17:47:03.056Z,18.92
2018-02-23T17:49:30.698Z,21.67
2018-02-23T17:51:58.092Z,20.00
2018-02-23T17:54:25.476Z,23.63
2018-02-23T17:56:52.930Z,24.03
2018-02-23T17:59:20.342Z,22.30
2018-02-23T18:01:47.726Z,21.90
2018-02-23T18:04:15.108Z,20.23
2018-02-23T18:06:42.505Z,23.98
2018-02-23T18:09:10.049Z,21.45
2018-02-23T18:11:37.578Z,21.02
2018-02-23T18:14:04.984Z,21.42
2018-02-23T18:16:34.453Z,19.70
2018-02-23T18:19:02.263Z,19.27
2018-02-23T18:21:31.480Z,21.94
2018-02-23T18:23:58.922Z,21.80
2018-02-23T18:26:26.279Z,22.87
2018-02-23T18:28:53.706Z,24.97
2018-02-23T18:31:21.096Z,23.90
2018-02-23T18:33:48.549Z,22.50
2018-02-23T18:36:16.171Z,22.13
2018-02-23T18:38:43.554Z,20.83
2018-02-23T18:41:10.945Z,21.93
2018-02-23T18:43:38.513Z,21.65
2018-02-23T18:46:08.460Z,22.77
2018-02-23T18:48:35.870Z,23.27
2018-02-23T18:51:03.311Z,22.50
2018-02-23T18:53:31.133Z,22.60
2018-02-23T18:55:58.515Z,21.73
2018-02-23T18:58:26.136Z,22.20
2018-02-23T19:00:53.513Z,22.43
2018-02-23T19:03:22.774Z,22.43
2018-02-23T19:05:50.149Z,21.03
2018-02-23T19:08:18.186Z,27.80
2018-02-23T19:10:45.612Z,22.37
2018-02-23T19:13:13.101Z,20.87
2018-02-23T19:15:40.501Z,19.10
2018-02-23T19:18:07.969Z,23.83
2018-02-23T19:20:35.370Z,22.20
2018-02-23T19:23:02.754Z,24.67
2018-02-23T19:25:30.620Z,26.60
2018-02-23T19:27:58.064Z,21.47
2018-02-23T19:30:25.454Z,22.27
2018-02-23T19:32:52.839Z,21.30
2018-02-23T19:35:20.232Z,24.50
2018-02-23T19:37:48.102Z,28.13
2018-02-23T19:40:15.777Z,30.47
2018-02-23T19:42:43.359Z,26.53
2018-02-23T19:45:10.855Z,28.17
2018-02-23T19:47:38.234Z,26.10
2018-02-23T19:50:05.656Z,23.63
2018-02-23T19:52:33.123Z,24.67
2018-02-23T19:55:00.709Z,26.08
2018-02-23T19:57:28.117Z,24.37
2018-02-23T19:59:55.506Z,23.07
2018-02-23T20:02:23.846Z,23.27
2018-02-23T20:04:51.768Z,26.17
2018-02-23T20:07:20.070Z,26.40
2018-02-23T20:09:47.509Z,25.37
2018-02-23T20:12:14.909Z,27.43
2018-02-23T20:14:42.299Z,30.40
2018-02-23T20:17:09.808Z,24.27
2018-02-23T20:19:37.185Z,26.80
2018-02-23T20:22:05.696Z,28.33
2018-02-23T20:24:33.066Z,23.37
2018-02-23T20:27:00.456Z,23.03
2018-02-23T20:29:27.874Z,22.97
2018-02-23T20:31:55.320Z,25.07
2018-02-23T20:34:22.713Z,26.37
2018-02-23T20:36:51.316Z,24.30
2018-02-23T20:39:18.687Z,23.23
2018-02-23T20:41:46.061Z,22.80
2018-02-23T20:44:13.461Z,24.63
2018-02-23T20:46:40.891Z,22.00
2018-02-23T20:49:08.336Z,24.07
2018-02-23T20:51:35.814Z,24.20
2018-02-23T20:54:03.486Z,23.93
2018-02-23T20:56:31.208Z,25.00
2018-02-23T20:58:58.578Z,30.27
2018-02-23T21:01:25.995Z,21.30
2018-02-23T21:03:53.366Z,23.60
2018-02-23T21:06:21.215Z,22.10
2018-02-23T21:08:49.379Z,23.30
2018-02-23T21:11:16.764Z,23.53
2018-02-23T21:13:44.158Z,23.67
2018-02-23T21:16:11.704Z,20.73
2018-02-23T21:18:39.492Z,25.13
2018-02-23T21:21:07.614Z,24.07
2018-02-23T21:23:34.987Z,24.07
2018-02-23T21:26:02.450Z,24.10
2018-02-23T21:28:29.844Z,21.00
2018-02-23T21:30:57.240Z,23.93
2018-02-23T21:33:24.947Z,23.17
2018-02-23T21:35:52.492Z,21.17
2018-02-23T21:38:21.703Z,22.67
2018-02-23T21:40:49.135Z,21.77
2018-02-23T21:43:17.585Z,23.73
2018-02-23T21:45:44.990Z,26.20
2018-02-23T21:48:12.769Z,24.17
2018-02-23T21:50:41.366Z,27.17
2018-02-23T21:53:08.756Z,24.27
2018-02-23T21:55:37.459Z,22.92
2018-02-23T21:58:05.466Z,23.10
2018-02-23T22:00:32.920Z,25.10
2018-02-23T22:03:00.539Z,27.23
2018-02-23T22:05:32.011Z,24.53
2018-02-23T22:07:59.918Z,22.20
2018-02-23T22:10:27.319Z,25.70
2018-02-23T22:12:54.707Z,24.37
2018-02-23T22:15:22.169Z,20.40
2018-02-23T22:17:49.538Z,25.93
2018-02-23T22:20:18.007Z,22.03
2018-02-23T22:22:45.626Z,23.77
2018-02-23T22:25:13.006Z,22.80
2018-02-23T22:27:40.391Z,22.90
2018-02-23T22:30:07.779Z,22.20
2018-02-23T22:32:37.378Z,22.48
2018-02-23T22:35:04.758Z,24.77
2018-02-23T22:37:32.175Z,24.67
2018-02-23T22:40:00.742Z,24.27
2018-02-23T22:42:28.717Z,21.07
2018-02-23T22:44:56.200Z,23.23
2018-02-23T22:47:23.609Z,24.08
2018-02-23T22:49:51.377Z,23.75
2018-02-23T22:52:19.018Z,24.60
2018-02-23T22:54:46.538Z,24.80
2018-02-23T22:57:13.983Z,21.10
2018-02-23T22:59:41.458Z,22.25
2018-02-23T23:02:09.163Z,25.80
2018-02-23T23:04:36.623Z,22.40
2018-02-23T23:07:20.261Z,24.10
2018-02-23T23:09:47.679Z,25.93
2018-02-23T23:12:15.079Z,27.83
2018-02-23T23:14:44.158Z,27.57
2018-02-23T23:17:12.589Z,23.67
2018-02-23T23:19:39.975Z,23.17
2018-02-23T23:22:07.352Z,23.93
2018-02-23T23:24:34.783Z,22.10
2018-02-23T23:27:02.175Z,26.10
2018-02-23T23:29:30.376Z,25.17
2018-02-23T23:31:58.867Z,22.60
2018-02-23T23:34:26.246Z,23.97
2018-02-23T23:36:53.638Z,23.97
2018-02-23T23:39:21.026Z,22.00
2018-02-23T23:41:48.431Z,24.87
2018-02-23T23:44:15.814Z,24.23
2018-02-23T23:46:43.237Z,23.70
2018-02-23T23:49:10.617Z,24.77
2018-02-23T23:51:38.026Z,25.90
2018-02-23T23:54:05.393Z,22.83
2018-02-23T23:56:33.265Z,24.92
2018-02-23T23:59:01.949Z,22.40
